Time;durP1;ratioP1;P1;durP2;ratioP2;P2;SDS_P1;SDS_P2;PMS_P1;PMS_P2;Temp;Humidity;BMP_temperature;BMP_pressure;BME280_temperature;BME280_humidity;BME280_pressure;Samples;Min_cycle;Max_cycle;Signal;HPM_P1;HPM_P2
2023/09/24 03:01:33;;;;;;;3.40;1.38;;;18.30;82.20;;;;;;5060466;28;20035;-80
2023/09/24 03:04:02;;;;;;;1.45;1.08;;;18.30;82.20;;;;;;5064234;28;20032;-80
2023/09/24 03:06:28;;;;;;;2.55;1.27;;;18.30;82.20;;;;;;5064193;28;20067;-79
2023/09/24 03:08:54;;;;;;;2.03;1.10;;;18.30;82.20;;;;;;5056513;28;20473;-80
2023/09/24 03:11:19;;;;;;;2.50;1.00;;;18.30;82.20;;;;;;5050333;28;20020;-79
2023/09/24 03:13:45;;;;;;;6.85;1.33;;;18.30;82.20;;;;;;5045909;28;20017;-79
2023/09/24 03:16:11;;;;;;;6.70;1.70;;;18.30;82.20;;;;;;5047790;28;20483;-79
2023/09/24 03:18:36;;;;;;;3.22;1.15;;;18.30;82.20;;;;;;5048475;28;20027;-80
2023/09/24 03:21:06;;;;;;;1.58;1.23;;;18.30;82.20;;;;;;5064056;28;20054;-79
2023/09/24 03:23:31;;;;;;;1.88;1.23;;;18.30;82.20;;;;;;5040327;28;20052;-79
2023/09/24 03:25:57;;;;;;;3.22;1.33;;;18.30;82.20;;;;;;5043988;28;20056;-79
2023/09/24 03:28:23;;;;;;;6.40;1.50;;;18.30;82.20;;;;;;5046442;28;20021;-79
2023/09/24 03:30:48;;;;;;;1.88;1.35;;;18.30;82.10;;;;;;5043867;28;20546;-78
2023/09/24 03:33:14;;;;;;;3.55;1.48;;;18.30;82.10;;;;;;5041636;28;20021;-79
2023/09/24 03:35:40;;;;;;;4.18;1.33;;;18.30;82.10;;;;;;5051637;28;20432;-79
2023/09/24 03:38:05;;;;;;;2.20;1.50;;;18.30;82.20;;;;;;5060332;28;20099;-79
2023/09/24 03:40:31;;;;;;;3.92;1.30;;;18.30;82.10;;;;;;5041289;28;20021;-79
2023/09/24 03:42:57;;;;;;;2.40;1.17;;;18.20;82.00;;;;;;5042308;28;20021;-79
2023/09/24 03:45:23;;;;;;;7.00;1.75;;;18.30;82.10;;;;;;5062038;28;20021;-79
2023/09/24 03:47:50;;;;;;;1.65;1.10;;;18.30;82.00;;;;;;5059212;28;20083;-79
2023/09/24 03:50:17;;;;;;;5.15;1.35;;;18.30;82.00;;;;;;5047047;28;20024;-80
2023/09/24 03:52:44;;;;;;;3.40;1.40;;;18.30;82.00;;;;;;5040563;28;20100;-79
2023/09/24 03:55:10;;;;;;;2.67;1.10;;;18.20;81.90;;;;;;5048757;28;20032;-79
2023/09/24 03:57:37;;;;;;;5.25;1.80;;;18.20;81.90;;;;;;5060850;28;20211;-79
2023/09/24 04:00:08;;;;;;;1.73;1.30;;;18.20;81.90;;;;;;5039867;28;20028;-79
2023/09/24 04:02:35;;;;;;;4.82;1.48;;;18.20;81.90;;;;;;5047393;28;20036;-80
2023/09/24 04:05:00;;;;;;;4.05;1.20;;;18.20;81.90;;;;;;5046744;28;20486;-79
2023/09/24 04:07:27;;;;;;;2.10;1.30;;;18.20;81.90;;;;;;5057781;28;20028;-79
2023/09/24 04:09:54;;;;;;;1.58;1.17;;;18.20;81.90;;;;;;5058561;28;20017;-79
2023/09/24 04:12:20;;;;;;;4.60;1.13;;;18.20;81.90;;;;;;5065016;28;20134;-79
2023/09/24 04:14:45;;;;;;;4.10;1.52;;;18.20;81.90;;;;;;5039845;28;20187;-80
2023/09/24 04:17:11;;;;;;;1.40;1.20;;;18.20;81.80;;;;;;5038953;28;20042;-79
2023/09/24 04:19:36;;;;;;;2.22;1.40;;;18.20;81.80;;;;;;5051637;28;20017;-79
2023/09/24 04:22:02;;;;;;;3.00;1.30;;;18.20;81.80;;;;;;5064760;28;20051;-79
2023/09/24 04:24:28;;;;;;;2.00;1.08;;;18.20;81.80;;;;;;5062443;28;20477;-79
2023/09/24 04:26:54;;;;;;;2.90;1.25;;;18.20;82.50;;;;;;5068121;28;20075;-79
2023/09/24 04:29:20;;;;;;;4.55;2.17;;;18.20;81.70;;;;;;5063505;28;20067;-80
2023/09/24 04:31:46;;;;;;;2.92;1.50;;;18.20;81.70;;;;;;5060083;28;20017;-80
2023/09/24 04:34:12;;;;;;;4.43;2.10;;;18.20;81.80;;;;;;5049742;28;20767;-79
2023/09/24 04:36:42;;;;;;;4.90;1.80;;;18.20;81.70;;;;;;5052866;28;20025;-79
2023/09/24 04:39:11;;;;;;;2.47;1.67;;;18.20;81.70;;;;;;5061840;28;20113;-79
2023/09/24 04:41:40;;;;;;;2.90;1.40;;;18.20;81.70;;;;;;5046409;28;20029;-78
2023/09/24 04:44:07;;;;;;;4.00;1.50;;;18.20;81.70;;;;;;5051404;28;20066;-79
2023/09/24 04:46:32;;;;;;;2.28;1.30;;;18.20;81.60;;;;;;5061822;28;20486;-80
2023/09/24 04:48:58;;;;;;;3.63;1.35;;;18.20;81.60;;;;;;5064454;28;20108;-80
2023/09/24 04:51:23;;;;;;;5.20;1.50;;;18.20;81.60;;;;;;5051598;28;20534;-79
2023/09/24 04:53:49;;;;;;;1.73;1.25;;;18.20;81.60;;;;;;5047998;28;20115;-79
2023/09/24 04:56:15;;;;;;;7.07;1.48;;;18.20;81.60;;;;;;5052729;28;20124;-79
2023/09/24 04:58:41;;;;;;;2.03;1.38;;;18.20;81.60;;;;;;5051584;28;20071;-80
2023/09/24 05:01:07;;;;;;;5.30;1.50;;;18.20;81.60;;;;;;5046149;28;20032;-79
2023/09/24 05:03:35;;;;;;;2.25;1.58;;;18.20;81.50;;;;;;5051164;28;20033;-79
2023/09/24 05:06:02;;;;;;;3.88;1.80;;;18.10;81.40;;;;;;5044561;28;20033;-79
2023/09/24 05:08:27;;;;;;;1.73;1.52;;;18.20;81.50;;;;;;5048592;28;20112;-79
2023/09/24 05:10:53;;;;;;;6.15;1.45;;;18.20;81.40;;;;;;5042851;28;20099;-79
2023/09/24 05:13:19;;;;;;;2.63;1.23;;;18.10;81.40;;;;;;5052209;28;20025;-79
2023/09/24 05:15:59;;;;;;;5.40;1.48;;;18.10;81.30;;;;;;5050025;28;20526;-79
2023/09/24 05:18:29;;;;;;;5.28;1.38;;;18.10;81.40;;;;;;5043675;28;20075;-80
2023/09/24 05:20:55;;;;;;;5.10;1.67;;;18.10;81.30;;;;;;5046867;28;20063;-79
2023/09/24 05:23:21;;;;;;;5.30;1.67;;;18.20;81.40;;;;;;5049341;28;20086;-79
2023/09/24 05:25:48;;;;;;;4.82;1.48;;;18.10;81.30;;;;;;5045577;28;20031;-79
2023/09/24 05:28:14;;;;;;;4.05;1.20;;;18.20;81.30;;;;;;5045522;28;20099;-79
2023/09/24 05:30:39;;;;;;;3.15;1.63;;;18.20;81.30;;;;;;5049024;28;20469;-79
2023/09/24 05:33:06;;;;;;;2.08;1.33;;;18.10;81.20;;;;;;5047599;28;20021;-80
2023/09/24 05:35:32;;;;;;;4.13;1.30;;;18.10;81.20;;;;;;5051970;28;20025;-79
2023/09/24 05:37:58;;;;;;;2.53;1.15;;;18.20;81.30;;;;;;5047934;28;20108;-80
2023/09/24 05:40:24;;;;;;;2.08;1.10;;;18.20;81.20;;;;;;5063785;28;20639;-79
2023/09/24 05:42:49;;;;;;;3.88;1.55;;;18.10;81.20;;;;;;5046883;28;20059;-79
2023/09/24 05:45:15;;;;;;;1.80;1.30;;;18.10;81.20;;;;;;5048111;28;20029;-80
2023/09/24 05:47:41;;;;;;;3.35;1.20;;;18.20;81.20;;;;;;5045612;28;20059;-79
2023/09/24 05:50:08;;;;;;;2.50;1.35;;;18.10;81.10;;;;;;5044006;28;20060;-80
2023/09/24 05:52:33;;;;;;;2.50;1.40;;;18.10;81.40;;;;;;5046668;28;20036;-80
2023/09/24 05:54:59;;;;;;;5.28;1.48;;;18.10;81.10;;;;;;5048647;28;20629;-79
2023/09/24 05:57:28;;;;;;;2.35;1.50;;;18.10;81.00;;;;;;5050770;28;20603;-79
2023/09/24 05:59:55;;;;;;;3.20;1.60;;;18.10;81.00;;;;;;5045022;28;20031;-79
2023/09/24 06:02:26;;;;;;;2.75;1.50;;;18.10;81.00;;;;;;5043492;28;20844;-79
2023/09/24 06:04:55;;;;;;;2.50;1.30;;;18.10;81.00;;;;;;5043889;28;20032;-79
2023/09/24 06:07:21;;;;;;;3.45;1.30;;;18.10;81.00;;;;;;5042917;28;20571;-79
2023/09/24 06:09:46;;;;;;;2.28;1.60;;;18.10;81.00;;;;;;5043433;28;20055;-79
2023/09/24 06:12:12;;;;;;;1.55;1.00;;;18.10;80.90;;;;;;5042376;28;20021;-79
2023/09/24 06:14:39;;;;;;;3.55;1.65;;;18.10;80.90;;;;;;5060357;28;20036;-78
2023/09/24 06:17:04;;;;;;;2.83;1.23;;;18.10;80.90;;;;;;5063199;28;20020;-79
2023/09/24 06:19:31;;;;;;;1.52;1.40;;;18.10;80.80;;;;;;5051754;28;20400;-79
2023/09/24 06:21:56;;;;;;;2.88;1.10;;;18.10;80.80;;;;;;5061694;28;20028;-78
2023/09/24 06:24:23;;;;;;;5.70;1.40;;;18.10;80.80;;;;;;5041676;28;20554;-79
2023/09/24 06:26:49;;;;;;;2.55;1.40;;;18.10;80.80;;;;;;5062500;28;20056;-80
2023/09/24 06:29:14;;;;;;;11.05;1.67;;;18.10;81.30;;;;;;5063143;28;20090;-79
2023/09/24 06:31:40;;;;;;;2.45;1.50;;;18.10;80.80;;;;;;5042522;28;20470;-80
2023/09/24 06:34:06;;;;;;;1.90;1.25;;;18.10;80.80;;;;;;5067373;28;20392;-79
2023/09/24 06:36:32;;;;;;;1.73;1.25;;;18.10;80.80;;;;;;5057922;28;20039;-79
2023/09/24 06:38:59;;;;;;;3.35;1.50;;;18.10;80.80;;;;;;5057042;28;20029;-79
2023/09/24 06:41:25;;;;;;;2.35;1.73;;;18.10;80.80;;;;;;5060037;28;20021;-80
2023/09/24 06:43:51;;;;;;;8.02;1.60;;;18.10;80.80;;;;;;5058769;28;20082;-80
2023/09/24 06:46:17;;;;;;;3.90;1.95;;;18.10;80.80;;;;;;5063193;28;20040;-80
2023/09/24 06:48:42;;;;;;;3.03;1.48;;;18.10;80.80;;;;;;5060595;28;20133;-79
2023/09/24 06:51:09;;;;;;;3.55;1.52;;;18.10;80.80;;;;;;5066394;28;20051;-80
2023/09/24 06:53:38;;;;;;;4.00;1.80;;;18.20;81.00;;;;;;5049960;28;20461;-80
2023/09/24 06:56:05;;;;;;;3.17;1.63;;;18.10;80.90;;;;;;5040729;28;20039;-80
2023/09/24 06:58:33;;;;;;;3.95;1.65;;;18.10;81.00;;;;;;5057088;28;20025;-80
2023/09/24 07:01:00;;;;;;;3.42;1.92;;;18.10;80.90;;;;;;5040457;28;20146;-79
2023/09/24 07:03:26;;;;;;;4.35;1.95;;;18.10;81.00;;;;;;5045412;28;20033;-79
2023/09/24 07:05:52;;;;;;;9.05;1.70;;;18.10;81.00;;;;;;5054311;28;20025;-79
2023/09/24 07:08:17;;;;;;;4.28;1.98;;;18.20;81.10;;;;;;5048763;28;20028;-80
2023/09/24 07:10:43;;;;;;;4.82;1.92;;;18.10;81.00;;;;;;5047211;28;20025;-79
2023/09/24 07:13:09;;;;;;;6.40;1.92;;;18.20;81.20;;;;;;5050975;28;20032;-79
2023/09/24 07:15:34;;;;;;;2.65;1.90;;;18.10;81.10;;;;;;5045238;28;20017;-80
2023/09/24 07:18:00;;;;;;;4.57;2.20;;;18.20;81.20;;;;;;5047798;28;20028;-79
2023/09/24 07:20:25;;;;;;;2.92;1.52;;;18.10;81.20;;;;;;5053642;28;20470;-80
2023/09/24 07:22:51;;;;;;;7.63;2.20;;;18.20;81.40;;;;;;5056686;28;20029;-80
2023/09/24 07:25:17;;;;;;;5.82;1.60;;;18.20;81.40;;;;;;5049126;28;20070;-80
2023/09/24 07:27:43;;;;;;;7.72;1.40;;;18.20;81.40;;;;;;5048506;28;20024;-79
2023/09/24 07:30:09;;;;;;;6.93;2.10;;;18.10;81.40;;;;;;5042504;28;20059;-79
2023/09/24 07:32:34;;;;;;;8.23;1.83;;;18.20;81.50;;;;;;5045446;28;20113;-80
2023/09/24 07:35:00;;;;;;;3.78;2.08;;;18.20;81.50;;;;;;5040659;28;20123;-80
2023/09/24 07:37:26;;;;;;;6.50;1.50;;;18.20;81.60;;;;;;5052697;28;20416;-80
2023/09/24 07:39:51;;;;;;;3.63;1.42;;;18.20;82.30;;;;;;5047557;28;20031;-80
2023/09/24 07:42:20;;;;;;;2.92;1.83;;;18.20;81.60;;;;;;5045946;28;20116;-80
2023/09/24 07:44:46;;;;;;;3.80;1.73;;;18.20;81.60;;;;;;5051055;28;20454;-80
2023/09/24 07:47:12;;;;;;;3.53;2.00;;;18.20;81.60;;;;;;5041664;28;20116;-79
2023/09/24 07:49:37;;;;;;;4.93;1.77;;;18.20;81.70;;;;;;5038660;28;20013;-80
2023/09/24 07:52:03;;;;;;;6.03;1.65;;;18.20;81.60;;;;;;5051322;28;20047;-79
2023/09/24 07:54:29;;;;;;;7.93;1.75;;;18.20;81.60;;;;;;5039316;28;20021;-79
2023/09/24 07:56:54;;;;;;;4.20;1.92;;;18.20;81.60;;;;;;5061468;28;20017;-81
2023/09/24 07:59:20;;;;;;;4.60;2.00;;;18.20;81.70;;;;;;5041146;28;20429;-80
2023/09/24 08:01:46;;;;;;;8.70;1.67;;;18.20;81.70;;;;;;5040936;28;20497;-80
2023/09/24 08:04:12;;;;;;;3.45;2.10;;;18.20;81.70;;;;;;5043050;28;20044;-80
2023/09/24 08:06:38;;;;;;;6.85;1.98;;;18.20;81.80;;;;;;5062263;28;20024;-81
2023/09/24 08:09:05;;;;;;;3.72;1.95;;;18.20;81.80;;;;;;5042521;28;20028;-80
2023/09/24 08:11:32;;;;;;;4.57;1.65;;;18.20;81.80;;;;;;5037951;28;20112;-80
2023/09/24 08:13:57;;;;;;;4.25;1.65;;;18.20;81.80;;;;;;5044086;28;20031;-79
2023/09/24 08:16:23;;;;;;;2.58;1.50;;;18.20;81.80;;;;;;5037739;28;20029;-80
2023/09/24 08:18:49;;;;;;;2.97;1.65;;;18.20;81.80;;;;;;5063649;28;20029;-79
2023/09/24 08:21:15;;;;;;;3.72;1.60;;;18.20;81.80;;;;;;5042849;28;20025;-79
2023/09/24 08:23:41;;;;;;;4.60;1.50;;;18.20;81.80;;;;;;5053982;28;20037;-80
2023/09/24 08:26:07;;;;;;;3.90;1.88;;;18.20;81.80;;;;;;5048711;28;20028;-80
2023/09/24 08:28:33;;;;;;;6.88;2.20;;;18.20;81.80;;;;;;5047364;28;20025;-80
2023/09/24 08:30:59;;;;;;;3.20;1.33;;;18.20;81.90;;;;;;5046957;28;20032;-80
2023/09/24 08:33:25;;;;;;;5.60;1.42;;;18.20;81.90;;;;;;5037898;28;20119;-80
2023/09/24 08:35:50;;;;;;;4.95;1.67;;;18.20;81.90;;;;;;5048622;28;20116;-80
2023/09/24 08:38:16;;;;;;;3.25;1.50;;;18.30;82.00;;;;;;5043426;28;20033;-79
2023/09/24 08:40:42;;;;;;;4.80;1.63;;;18.30;82.00;;;;;;5048591;28;20033;-79
2023/09/24 08:43:16;;;;;;;2.47;1.70;;;18.20;81.90;;;;;;5044009;28;20451;-79
2023/09/24 08:45:42;;;;;;;6.57;2.13;;;18.20;82.00;;;;;;5045491;28;20541;-79
2023/09/24 08:48:09;;;;;;;3.70;1.45;;;18.30;82.00;;;;;;5049339;28;20124;-79
2023/09/24 08:50:38;;;;;;;3.95;1.50;;;18.30;82.10;;;;;;5042645;28;20112;-80
2023/09/24 08:53:16;;;;;;;2.35;1.45;;;18.30;82.00;;;;;;5056214;28;20377;-80
2023/09/24 08:55:43;;;;;;;2.58;1.30;;;18.20;82.00;;;;;;5055722;28;20024;-79
2023/09/24 08:58:11;;;;;;;3.67;1.25;;;18.30;82.10;;;;;;5058063;28;20055;-79
2023/09/24 09:00:42;;;;;;;2.10;1.58;;;18.30;82.10;;;;;;5035907;28;20549;-80
2023/09/24 09:03:08;;;;;;;7.18;1.75;;;18.20;82.00;;;;;;5055606;28;20056;-80
2023/09/24 09:05:37;;;;;;;2.92;1.40;;;18.30;82.10;;;;;;5041880;28;20082;-79
2023/09/24 09:08:04;;;;;;;2.80;1.58;;;18.30;82.10;;;;;;5065041;28;20029;-78
2023/09/24 09:10:32;;;;;;;6.38;1.63;;;18.30;82.20;;;;;;5048744;28;20074;-79
2023/09/24 09:13:09;;;;;;;4.30;1.58;;;18.30;82.20;;;;;;5061904;28;20032;-82
2023/09/24 09:15:37;;;;;;;2.10;1.23;;;18.20;80.80;;;;;;5046724;28;20025;-82
2023/09/24 09:18:03;;;;;;;2.92;1.40;;;18.20;79.10;;;;;;5046432;28;20032;-82
2023/09/24 09:20:46;;;;;;;2.67;1.20;;;18.20;78.40;;;;;;5056263;28;20055;-82
2023/09/24 09:23:15;;;;;;;6.82;1.27;;;18.10;78.10;;;;;;5040950;28;20098;-81
2023/09/24 09:25:52;;;;;;;7.03;1.67;;;18.20;78.20;;;;;;5061208;28;20047;-82
2023/09/24 09:28:20;;;;;;;2.92;1.40;;;18.20;78.00;;;;;;5059396;28;20263;-83
2023/09/24 09:30:59;;;;;;;3.65;1.42;;;18.10;77.50;;;;;;5058004;28;20021;-83
2023/09/24 09:33:27;;;;;;;1.83;1.20;;;18.10;77.30;;;;;;5063216;28;20021;-81
2023/09/24 09:35:52;;;;;;;5.07;1.55;;;18.10;77.10;;;;;;5064243;28;20024;-82
2023/09/24 09:38:18;;;;;;;6.43;1.55;;;18.10;76.30;;;;;;5045869;28;20032;-82
2023/09/24 09:40:44;;;;;;;3.75;1.27;;;18.10;76.50;;;;;;5042969;28;20105;-83
2023/09/24 09:43:14;;;;;;;7.20;1.48;;;18.10;76.40;;;;;;5043040;28;20035;-83
2023/09/24 09:45:43;;;;;;;6.20;1.48;;;18.00;76.30;;;;;;5047735;28;20113;-82
2023/09/24 09:48:11;;;;;;;8.27;2.47;;;18.00;76.10;;;;;;5045322;28;20040;-83
2023/09/24 09:50:43;;;;;;;3.78;1.60;;;18.00;76.10;;;;;;5039655;28;20024;-82
2023/09/24 09:53:10;;;;;;;6.80;2.05;;;18.00;76.10;;;;;;5062765;28;20493;-83
2023/09/24 09:55:38;;;;;;;2.25;1.08;;;18.00;75.80;;;;;;5058885;28;20103;-82
2023/09/24 09:58:06;;;;;;;6.82;1.42;;;18.00;75.70;;;;;;5056846;28;20029;-82
2023/09/24 10:00:32;;;;;;;4.72;1.70;;;18.00;75.30;;;;;;5063032;28;20078;-83
2023/09/24 10:02:58;;;;;;;8.52;1.80;;;18.00;75.30;;;;;;5061876;28;20037;-74
2023/09/24 10:05:25;;;;;;;3.30;1.38;;;18.00;74.70;;;;;;5062545;28;20021;-72
2023/09/24 10:07:51;;;;;;;3.33;1.40;;;18.00;75.10;;;;;;5061867;28;20568;-74
2023/09/24 10:10:32;;;;;;;3.53;1.80;;;18.00;75.00;;;;;;5063327;28;20032;-73
2023/09/24 10:13:04;;;;;;;5.18;1.38;;;18.00;74.70;;;;;;5063925;28;20047;-73
2023/09/24 10:15:30;;;;;;;4.85;2.30;;;18.00;74.60;;;;;;5042977;28;20454;-74
2023/09/24 10:18:25;;;;;;;4.57;1.70;;;18.00;74.90;;;;;;5067247;28;20410;-73
2023/09/24 10:20:55;;;;;;;3.00;2.03;;;18.00;76.10;;;;;;5035027;28;20033;-75
2023/09/24 10:23:30;;;;;;;4.90;1.92;;;18.00;75.40;;;;;;5045992;28;20123;-75
2023/09/24 10:25:59;;;;;;;5.13;2.15;;;18.00;76.10;;;;;;5062463;28;20498;-75
2023/09/24 10:28:49;;;;;;;1.92;1.10;;;18.00;75.10;;;;;;5044093;28;20025;-73
2023/09/24 10:31:16;;;;;;;;;;;18.00;74.70;;;;;;5058161;28;20013;-75
2023/09/24 10:34:05;;;;;;;4.80;1.13;;;18.00;74.60;;;;;;5044557;28;20000;-74
2023/09/24 10:36:33;;;;;;;2.10;1.05;;;18.00;74.20;;;;;;5066465;28;20024;-75
2023/09/24 10:39:08;;;;;;;1.85;1.00;;;18.00;73.70;;;;;;5063411;28;20755;-74
2023/09/24 10:41:35;;;;;;;3.67;1.23;;;18.00;73.30;;;;;;5063577;28;20029;-74
2023/09/24 10:44:20;;;;;;;1.50;1.33;;;18.00;73.20;;;;;;5058654;28;20025;-74
2023/09/24 10:46:46;;;;;;;5.60;1.42;;;18.00;73.10;;;;;;5060774;28;20059;-74
2023/09/24 10:49:21;;;;;;;3.33;1.38;;;18.00;72.90;;;;;;5067347;28;20024;-75
2023/09/24 10:51:48;;;;;;;4.13;1.30;;;18.00;72.70;;;;;;5058445;28;20036;-75
2023/09/24 10:54:15;;;;;;;2.42;1.08;;;18.00;72.80;;;;;;5063596;28;20021;-74
2023/09/24 10:56:47;;;;;;;1.95;1.20;;;18.00;73.10;;;;;;5064890;28;20219;-75
2023/09/24 10:59:14;;;;;;;4.22;1.40;;;18.10;73.30;;;;;;5060066;28;20028;-75
2023/09/24 11:01:40;;;;;;;1.65;1.08;;;18.10;73.50;;;;;;5062845;28;20056;-75
2023/09/24 11:04:08;;;;;;;3.67;1.00;;;18.10;73.40;;;;;;5065138;28;20107;-74
2023/09/24 11:06:34;;;;;;;1.50;1.20;;;18.10;73.20;;;;;;5059523;28;20013;-74
2023/09/24 11:09:23;;;;;;;7.18;1.38;;;18.10;73.30;;;;;;5064036;28;20025;-75
2023/09/24 11:11:48;;;;;;;8.95;1.70;;;18.10;73.20;;;;;;5062126;28;20029;-74
2023/09/24 11:14:22;;;;;;;4.00;1.35;;;18.10;73.20;;;;;;5059325;28;20023;-75
2023/09/24 11:16:49;;;;;;;3.75;1.45;;;18.10;73.40;;;;;;5063859;28;20028;-75
2023/09/24 11:19:44;;;;;;;3.63;1.35;;;18.10;73.40;;;;;;5062263;28;20023;-73
2023/09/24 11:22:24;;;;;;;2.70;1.30;;;18.10;73.60;;;;;;5058317;28;20520;-75
2023/09/24 11:25:09;;;;;;;2.53;1.35;;;18.20;73.80;;;;;;5058852;28;20045;-75
2023/09/24 11:27:36;;;;;;;4.10;1.40;;;18.20;73.20;;;;;;5064114;28;20013;-74
2023/09/24 11:30:03;;;;;;;1.52;1.20;;;18.20;72.80;;;;;;5061806;28;20389;-74
2023/09/24 11:32:29;;;;;;;1.45;1.00;;;18.10;72.20;;;;;;5065998;28;20013;-74
2023/09/24 11:35:15;;;;;;;3.88;1.10;;;18.20;72.30;;;;;;5042945;28;20036;-74
2023/09/24 11:37:58;;;;;;;2.85;1.08;;;18.20;72.10;;;;;;5062475;28;20029;-75
2023/09/24 11:40:28;;;;;;;6.28;1.17;;;18.20;71.60;;;;;;5059605;28;20358;-74
2023/09/24 11:42:58;;;;;;;2.80;1.08;;;18.10;71.00;;;;;;5040815;28;20025;-75
2023/09/24 11:45:42;;;;;;;3.63;1.08;;;18.10;70.80;;;;;;5061171;28;20027;-74
2023/09/24 11:48:13;;;;;;;2.67;1.05;;;18.10;70.40;;;;;;5062610;28;20103;-75
2023/09/24 11:51:04;;;;;;;4.55;1.13;;;18.20;70.70;;;;;;5057496;28;20073;-75
2023/09/24 11:53:29;;;;;;;;;;;18.20;70.50;;;;;;5055249;28;20048;-74
2023/09/24 11:55:57;;;;;;;3.35;1.00;;;18.20;70.20;;;;;;5062161;28;20000;-75
2023/09/24 11:58:27;;;;;;;1.92;0.90;;;18.20;70.40;;;;;;5053110;28;20081;-74
2023/09/24 12:00:57;;;;;;;2.08;1.48;;;18.20;70.80;;;;;;5062045;28;20021;-74
2023/09/24 12:03:23;;;;;;;2.47;1.10;;;18.20;70.70;;;;;;5061008;28;20527;-73
2023/09/24 12:05:50;;;;;;;2.90;1.45;;;18.20;70.80;;;;;;5058725;28;20024;-74
2023/09/24 12:08:16;;;;;;;3.25;1.20;;;18.30;70.60;;;;;;5066186;28;20016;-74
2023/09/24 12:10:46;;;;;;;3.30;1.35;;;18.30;70.60;;;;;;5062970;28;20469;-73
2023/09/24 12:13:12;;;;;;;;;;;18.30;70.50;;;;;;5063874;28;20028;-73
2023/09/24 12:15:37;;;;;;;2.05;1.00;;;18.30;70.00;;;;;;5044829;28;19905;-75
2023/09/24 12:18:05;;;;;;;2.47;1.00;;;18.20;70.20;;;;;;5059825;28;20039;-73
2023/09/24 12:20:32;;;;;;;1.77;1.02;;;18.20;70.40;;;;;;5060227;28;20032;-73
2023/09/24 12:22:59;;;;;;;2.90;1.33;;;18.30;70.60;;;;;;5061610;28;20405;-73
2023/09/24 12:25:25;;;;;;;2.10;1.10;;;18.30;70.90;;;;;;5041421;28;20025;-73
2023/09/24 12:27:51;;;;;;;1.95;0.98;;;18.30;70.90;;;;;;5061161;28;20519;-73
2023/09/24 12:30:17;;;;;;;2.80;1.08;;;18.20;71.10;;;;;;5042796;28;20085;-73
2023/09/24 12:32:43;;;;;;;1.40;0.90;;;18.30;71.10;;;;;;5044676;28;20028;-73
2023/09/24 12:35:13;;;;;;;2.40;1.30;;;18.30;71.10;;;;;;5048722;28;20035;-73
2023/09/24 12:37:40;;;;;;;3.05;1.00;;;18.30;71.00;;;;;;5046982;28;20112;-74
2023/09/24 12:40:10;;;;;;;1.63;1.10;;;18.30;71.20;;;;;;5066186;28;20025;-74
2023/09/24 12:42:40;;;;;;;5.10;2.33;;;18.30;71.50;;;;;;5069980;28;20032;-74
2023/09/24 12:45:08;;;;;;;4.50;1.20;;;18.30;71.20;;;;;;5063287;28;20568;-73
2023/09/24 12:47:34;;;;;;;3.88;1.80;;;18.30;71.70;;;;;;5065628;28;20020;-74
2023/09/24 12:50:00;;;;;;;7.80;1.90;;;18.30;71.40;;;;;;5070812;28;20078;-73
2023/09/24 12:52:42;;;;;;;6.28;1.48;;;18.30;71.80;;;;;;5047905;28;20021;-73
2023/09/24 12:55:10;;;;;;;3.88;1.20;;;18.30;71.80;;;;;;5069062;28;20099;-73
2023/09/24 12:57:37;;;;;;;2.70;1.30;;;18.30;72.00;;;;;;5046880;28;20494;-74
2023/09/24 13:00:10;;;;;;;3.05;1.02;;;18.30;72.10;;;;;;5060620;28;20436;-73
2023/09/24 13:02:45;;;;;;;3.10;1.00;;;18.30;72.00;;;;;;5065570;28;20028;-74
2023/09/24 13:05:12;;;;;;;2.05;1.00;;;18.30;71.50;;;;;;5063068;28;20065;-73
2023/09/24 13:07:43;;;;;;;1.20;0.70;;;18.40;71.30;;;;;;5065498;28;20115;-73
2023/09/24 13:10:09;;;;;;;4.72;1.20;;;18.30;71.40;;;;;;5063732;28;20602;-73
2023/09/24 13:12:35;;;;;;;1.48;1.13;;;18.30;71.00;;;;;;5066226;28;20130;-74
2023/09/24 13:15:01;;;;;;;4.82;1.40;;;18.30;71.50;;;;;;5064205;28;20285;-74
2023/09/24 13:17:27;;;;;;;0.80;0.80;;;18.30;71.00;;;;;;5044994;28;20528;-73
2023/09/24 13:19:53;;;;;;;3.63;1.48;;;18.30;71.00;;;;;;5062681;28;20100;-73
2023/09/24 13:22:18;;;;;;;3.17;1.23;;;18.30;70.80;;;;;;5064969;28;20067;-73
2023/09/24 13:24:44;;;;;;;2.45;1.00;;;18.30;70.70;;;;;;5068263;28;20024;-73
2023/09/24 13:27:09;;;;;;;2.65;1.35;;;18.30;70.10;;;;;;5054218;28;20090;-73
2023/09/24 13:29:35;;;;;;;4.18;1.10;;;18.30;69.60;;;;;;5066869;28;20016;-74
2023/09/24 13:32:02;;;;;;;1.88;1.05;;;18.30;69.60;;;;;;5066008;28;20040;-73
2023/09/24 13:34:30;;;;;;;1.30;0.75;;;18.30;69.30;;;;;;5047165;28;20065;-73
2023/09/24 13:36:56;;;;;;;1.75;1.00;;;18.30;69.30;;;;;;5061887;28;20017;-73
2023/09/24 13:39:21;;;;;;;2.10;1.25;;;18.30;69.30;;;;;;5064398;28;20540;-73
2023/09/24 13:41:47;;;;;;;4.93;1.25;;;18.30;69.20;;;;;;5060874;28;20083;-73
2023/09/24 13:44:13;;;;;;;4.55;1.20;;;18.30;69.30;;;;;;5065432;28;20017;-74
2023/09/24 13:46:38;;;;;;;2.20;1.02;;;18.30;69.40;;;;;;5068475;28;20477;-73
2023/09/24 13:49:04;;;;;;;3.92;1.42;;;18.30;69.30;;;;;;5063922;28;20031;-73
2023/09/24 13:51:41;;;;;;;2.83;1.00;;;18.30;69.50;;;;;;5048261;28;20013;-73
2023/09/24 13:54:07;;;;;;;9.27;1.27;;;18.30;69.60;;;;;;5064135;28;20020;-73
2023/09/24 13:56:33;;;;;;;4.40;1.30;;;18.30;69.70;;;;;;5064957;28;20100;-74
2023/09/24 13:58:58;;;;;;;2.95;1.50;;;18.30;69.50;;;;;;5063802;28;20108;-74
2023/09/24 14:01:24;;;;;;;4.15;1.50;;;18.30;69.00;;;;;;5043737;28;20028;-73
2023/09/24 14:03:52;;;;;;;3.97;1.30;;;18.30;68.60;;;;;;5061333;28;20033;-74
2023/09/24 14:06:18;;;;;;;6.20;1.48;;;18.30;68.70;;;;;;5065230;28;20024;-73
2023/09/24 14:14:13;;;;;;;1.65;1.25;;;18.30;68.30;;;;;;5071427;28;20023;-73
2023/09/24 14:16:40;;;;;;;1.50;1.13;;;18.30;68.00;;;;;;5065687;28;20029;-73
2023/09/24 14:19:07;;;;;;;3.33;1.05;;;18.20;68.10;;;;;;5062522;28;20072;-73
2023/09/24 14:21:33;;;;;;;2.05;1.30;;;18.30;68.10;;;;;;5070332;28;20029;-73
2023/09/24 14:23:59;;;;;;;2.58;1.42;;;18.30;68.10;;;;;;5062452;28;20024;-73
2023/09/24 14:26:25;;;;;;;4.28;1.30;;;18.20;68.00;;;;;;5061273;28;20021;-73
2023/09/24 14:28:51;;;;;;;6.25;1.35;;;18.30;67.90;;;;;;5046723;28;20628;-74
2023/09/24 14:31:17;;;;;;;3.42;0.95;;;18.30;68.00;;;;;;5062385;28;20017;-74
2023/09/24 14:33:43;;;;;;;3.72;2.25;;;18.20;68.20;;;;;;5061679;28;20104;-74
2023/09/24 14:36:09;;;;;;;3.65;1.30;;;18.20;67.90;;;;;;5065517;28;20025;-73
2023/09/24 14:38:34;;;;;;;5.63;1.20;;;18.20;68.20;;;;;;5061492;28;20043;-74
2023/09/24 14:41:00;;;;;;;3.35;1.17;;;18.30;68.20;;;;;;5060264;28;20100;-74
2023/09/24 14:43:26;;;;;;;2.42;1.20;;;18.20;68.10;;;;;;5067407;28;20435;-73
2023/09/24 14:45:56;;;;;;;2.42;1.10;;;18.30;68.30;;;;;;5061621;28;20040;-74
2023/09/24 14:48:21;;;;;;;2.17;1.20;;;18.20;67.60;;;;;;5049634;28;20073;-73
2023/09/24 14:50:47;;;;;;;1.73;0.93;;;18.20;67.30;;;;;;5067462;28;20025;-73
2023/09/24 14:53:13;;;;;;;2.67;1.40;;;18.20;67.20;;;;;;5063799;28;20094;-73
2023/09/24 14:55:39;;;;;;;3.78;1.20;;;18.20;66.90;;;;;;5058945;28;20028;-73
2023/09/24 14:58:05;;;;;;;5.60;1.30;;;18.20;66.40;;;;;;5065453;28;20025;-74
2023/09/24 15:00:31;;;;;;;3.92;1.10;;;18.20;66.40;;;;;;5063033;28;20028;-74
2023/09/24 15:02:59;;;;;;;1.52;1.10;;;18.20;66.60;;;;;;5062829;28;20489;-73
2023/09/24 15:05:24;;;;;;;1.35;1.00;;;18.20;66.70;;;;;;5067692;28;20025;-73
2023/09/24 15:07:50;;;;;;;2.20;1.25;;;18.20;66.70;;;;;;5064858;28;20374;-74
2023/09/24 15:10:16;;;;;;;2.38;1.08;;;18.20;66.70;;;;;;5061314;28;20021;-73
2023/09/24 15:12:41;;;;;;;2.33;1.02;;;18.20;66.70;;;;;;5070956;28;20096;-73
2023/09/24 15:15:07;;;;;;;2.42;1.13;;;18.20;66.60;;;;;;5060987;28;20469;-73
2023/09/24 15:17:33;;;;;;;2.03;1.20;;;18.20;66.40;;;;;;5067784;28;20017;-73
2023/09/24 15:19:58;;;;;;;4.13;1.20;;;18.20;66.20;;;;;;5044746;28;20543;-74
2023/09/24 15:22:24;;;;;;;3.53;0.95;;;18.20;66.40;;;;;;5051680;28;20104;-73
2023/09/24 15:24:49;;;;;;;1.42;1.00;;;18.20;66.00;;;;;;5068500;28;20099;-73
2023/09/24 15:27:15;;;;;;;1.40;1.20;;;18.20;66.20;;;;;;5064104;28;20074;-73
2023/09/24 15:29:41;;;;;;;2.15;1.30;;;18.10;66.00;;;;;;5058078;28;20160;-73
2023/09/24 15:32:07;;;;;;;2.05;0.98;;;18.20;65.70;;;;;;5063105;28;20024;-73
2023/09/24 15:34:33;;;;;;;3.95;1.15;;;18.10;66.70;;;;;;5059125;28;20017;-73
2023/09/24 15:36:59;;;;;;;1.50;1.33;;;18.10;65.70;;;;;;5060821;28;20027;-74
2023/09/24 15:39:24;;;;;;;1.65;1.00;;;18.20;65.60;;;;;;5065448;28;20016;-74
2023/09/24 15:41:50;;;;;;;2.47;1.40;;;18.10;65.30;;;;;;5062904;28;20358;-74
2023/09/24 15:44:16;;;;;;;1.95;1.10;;;18.10;65.40;;;;;;5059061;28;20498;-74
2023/09/24 15:46:42;;;;;;;4.07;1.10;;;18.10;65.40;;;;;;5052712;28;20029;-74
2023/09/24 15:49:07;;;;;;;3.00;1.23;;;18.10;65.30;;;;;;5046991;28;20074;-74
2023/09/24 15:51:33;;;;;;;4.75;1.50;;;18.10;65.10;;;;;;5043700;28;20024;-74
2023/09/24 15:53:58;;;;;;;5.78;1.40;;;18.20;65.30;;;;;;5046607;28;20052;-75
2023/09/24 15:56:24;;;;;;;2.13;1.30;;;18.10;65.10;;;;;;5040434;28;20021;-75